Ammon, Idaho
Current Conditions -  °F | °C
As of 10:53 PM on Friday 19 Dec 2014 (Local Time) from KIDA Reporting Station
Overcast Overcast  
Wind Chill: 26°   Ceiling: 1300
Heat Index: 34°   Visibility: 8mi
Dew Point: 32°   Wind: 10mph
Humidity: 92%   Direction: 210°SSW
Pressure: 30.09"   Gusts: NA
Location:  43.4284°N, 111.925°W
Report Text: KIDA 200553Z AUTO 21009KT 8SM SCT004 OVC013 01/00 A3009 RMK AO2 SNE28 SLP204 P0000 60001 T00110000 10033 20006 51006
Loading
Personal Weather Stations






























Interactive Weather Map New forecast layout! Learn more

10-Day Weather Forecast

Advertisements
Track Severe Weather on mobile